Flight Track Log - Related Links

Times and Time Zones

All times are in EDT time to prevent confusion due to time zone crossing. See the DAL1214 flight status page for this flight to view local times or setup timezone preferences in your user account.

Time Position Orientation Groundspeed Altitude Reporting Facility
EDT Latitude Longitude Course Direction KTS MPH feet Rate Location/Type
Fri 03:20:35 PM 40.8781 -81.4733 176° South 186 214 2,500  Level Indianapolis Center
Fri 03:21:37 PM 40.8039 -81.4844 186° South 236 272 5,000 2,468 Climbing Cleveland Center
Fri 03:22:39 PM 40.7344 -81.5119 197° South 263 303 7,600 1,632 Climbing Cleveland Center
Fri 03:23:00 PM 40.4707 -81.6446 173° South  Level Estimated
Fri 03:23:42 PM 40.6542 -81.4964 172° South 289 333 8,400  Level Cleveland Center
Fri 03:24:00 PM 40.3596 -81.5945 161° South  Level FlightAware Approximate
Fri 03:24:44 PM 40.5808 -81.4428 151° Southeast 299 344 10,800  Level Cleveland Center
Fri 03:25:00 PM 40.2489 -81.6457 176° South  Level Estimated
Fri 03:25:46 PM 40.4925 -81.3719 149° Southeast 334 384 13,200  Level Cleveland Center
Fri 03:26:48 PM 40.3967 -81.3436 167° South 362 417 15,500 2,081 Climbing Cleveland Center
Fri 03:27:50 PM 40.3014 -81.3456 181° South 365 420 17,500 1,645 Climbing Indianapolis Center
Fri 03:28:52 PM 40.1744 -81.3528 182° South 388 447 18,900 1,306 Climbing Indianapolis Center
Fri 03:29:54 PM 40.0528 -81.3556 181° South 428 493 20,200 1,355 Climbing Indianapolis Center
Fri 03:30:56 PM 39.9442 -81.3592 181° South 444 511 21,700 1,452 Climbing Indianapolis Center
Fri 03:31:58 PM 39.7894 -81.3658 182° South 461 531 23,200 1,355 Climbing Indianapolis Center
Fri 03:33:00 PM 39.6547 -81.3689 181° South 479 551 24,500 1,452 Climbing Indianapolis Center
Fri 03:34:02 PM 39.5172 -81.3731 181° South 491 565 26,200 1,694 Climbing Indianapolis Center
Fri 03:35:04 PM 39.3861 -81.3944 187° South 477 549 28,000 1,645 Climbing Indianapolis Center
Fri 03:36:06 PM 39.2608 -81.4414 196° South 469 540 29,600 1,403 Climbing Indianapolis Center
Fri 03:37:08 PM 39.1375 -81.4850 195° South 460 529 30,900 1,306 Climbing Indianapolis Center
Fri 03:38:10 PM 38.9900 -81.5408 196° South 461 531 32,300 1,056 Climbing Indianapolis Center
Fri 03:39:13 PM 38.8700 -81.5853 196° South 453 521 33,100 768 Climbing Indianapolis Center
Fri 03:40:15 PM 38.7419 -81.6294 195° South 456 525 33,900 435 Climbing Indianapolis Center
Fri 03:41:17 PM 38.6194 -81.6717 195° South 455 524 34,000 48 Climbing Indianapolis Center
Fri 03:42:19 PM 38.4850 -81.7231 197° South 457 526 34,000  Level Indianapolis Center
Fri 03:43:21 PM 38.3628 -81.7694 197° South 459 528 34,000  Level Indianapolis Center
Fri 03:44:23 PM 38.2461 -81.8289 202° Southwest 453 521 34,000  Level Indianapolis Center
Fri 03:45:25 PM 38.1292 -81.8867 201° Southwest 451 519 34,000  Level Indianapolis Center
Fri 03:46:27 PM 38.0125 -81.9464 202° Southwest 450 518 34,000  Level Indianapolis Center
Fri 03:47:29 PM 37.8969 -82.0036 201° Southwest 447 514 34,000  Level Indianapolis Center
Fri 03:48:31 PM 37.7700 -82.0686 202° Southwest 450 518 34,000  Level Indianapolis Center
Fri 03:49:33 PM 37.6364 -82.1375 202° Southwest 446 513 34,000  Level Indianapolis Center
Fri 03:50:35 PM 37.5214 -82.1958 202° Southwest 445 512 34,000  Level Indianapolis Center
Fri 03:51:37 PM 37.4075 -82.2531 202° Southwest 439 505 34,000  Level Indianapolis Center
Fri 03:52:40 PM 37.2900 -82.3114 202° Southwest 450 518 34,000  Level Indianapolis Center
Fri 03:53:42 PM 37.1747 -82.3686 202° Southwest 445 512 34,000  Level Indianapolis Center
Fri 03:54:44 PM 37.0583 -82.4261 202° Southwest 445 512 34,000  Level Indianapolis Center
Fri 03:55:46 PM 36.9222 -82.4925 201° Southwest 447 514 34,000  Level Indianapolis Center
Fri 03:56:48 PM 36.8042 -82.5494 201° Southwest 450 518 34,000  Level Indianapolis Center
Fri 03:57:50 PM 36.6869 -82.6094 202° Southwest 448 516 34,000  Level Indianapolis Center
Fri 03:58:52 PM 36.5694 -82.6675 202° Southwest 449 517 34,000  Level Indianapolis Center
Fri 03:59:54 PM 36.4531 -82.7242 201° Southwest 447 514 34,000  Level Indianapolis Center
Fri 04:01:17 PM 36.2897 -82.8050 202° Southwest 451 519 34,000  Level Atlanta Center
Fri 04:02:17 PM 36.1756 -82.8606 201° Southwest 444 511 34,000  Level Atlanta Center
Fri 04:03:17 PM 36.0572 -82.9189 202° Southwest 450 518 34,000  Level Atlanta Center
Fri 04:04:17 PM 35.9411 -82.9744 201° Southwest 450 518 34,000  Level Atlanta Center
Fri 04:05:17 PM 35.8247 -83.0322 202° Southwest 450 518 34,000  Level Atlanta Center
Fri 04:06:17 PM 35.7019 -83.0694 194° South 450 518 34,000  Level Atlanta Center
Fri 04:07:17 PM 35.5769 -83.0992 191° South 462 532 34,000 -250 Level Atlanta Center
Fri 04:08:17 PM 35.4542 -83.1414 196° South 462 532 33,500 -1,250 Descending Atlanta Center
Fri 04:09:17 PM 35.3419 -83.2036 204° Southwest 455 524 31,500 -2,050 Descending Atlanta Center
Fri 04:10:17 PM 35.2256 -83.2633 203° Southwest 455 524 29,400 -2,200 Descending Atlanta Center
Fri 04:11:17 PM 35.0944 -83.3306 203° Southwest 462 532 27,100 -1,950 Descending Atlanta Center
Fri 04:12:17 PM 34.9739 -83.3925 203° Southwest 469 540 25,500 -1,600 Descending Atlanta Center
Fri 04:13:17 PM 34.8572 -83.4567 204° Southwest 464 534 23,900 -1,450 Descending Atlanta Center
Fri 04:14:17 PM 34.7428 -83.5156 203° Southwest 459 528 22,600 -1,350 Descending Atlanta Center
Fri 04:15:17 PM 34.6428 -83.5642 202° Southwest 447 514 21,200 -1,400 Descending Atlanta Center
Fri 04:16:17 PM 34.5325 -83.6203 203° Southwest 441 507 19,800 -1,250 Descending Atlanta Center
Fri 04:17:17 PM 34.4239 -83.6711 201° Southwest 424 488 18,700 -1,450 Descending Atlanta Center
Fri 04:18:17 PM 34.3197 -83.7269 204° Southwest 417 480 16,900 -1,819 Descending Atlanta Center
Fri 04:19:52 PM 34.1500 -83.8167 204° Southwest 367 422 14,000 -1,123 Descending Atlanta TRACON
Fri 04:20:52 PM 34.0667 -83.8667 206° Southwest 435 501 14,000 -450 Level Atlanta TRACON
Fri 04:21:52 PM 33.9833 -83.9500 220° Southwest 353 406 13,100 -1,000 Descending Atlanta TRACON
Fri 04:22:52 PM 33.9000 -84.0167 214° Southwest 351 404 12,000 -579 Descending Atlanta TRACON
Fri 04:23:46 PM 33.8333 -84.0667 212° Southwest 361 415 12,000  Level Atlanta TRACON
Fri 04:24:17 PM 33.7858 -84.1014 211° Southwest 367 422 12,000  Level Atlanta Center
Fri 04:25:17 PM 33.7317 -84.1861 232° Southwest 336 387 12,000  Level Atlanta Center
Fri 04:25:52 PM 33.7333 -84.2500 272° West 291 335 12,000 -472 Level Atlanta TRACON
Fri 04:26:46 PM 33.7333 -84.3333 270° West 291 335 11,300 -1,316 Descending Atlanta TRACON
Fri 04:27:46 PM 33.7333 -84.4333 270° West 296 341 9,500 -1,650 Descending Atlanta TRACON
Fri 04:28:46 PM 33.7333 -84.5167 270° West 281 323 8,000 -1,476 Descending Atlanta TRACON
Fri 04:29:52 PM 33.7333 -84.6333 270° West 265 305 6,400 -1,190 Descending Atlanta TRACON
Fri 04:30:52 PM 33.6833 -84.6667 209° Southwest 232 267 5,500 -1,250 Descending Atlanta TRACON
Fri 04:31:52 PM 33.6500 -84.6167 129° Southeast 211 243 3,900 -1,300 Descending Atlanta TRACON
Fri 04:32:52 PM 33.6500 -84.5500 90° East 181 208 2,900 -893 Descending Atlanta TRACON
Fri 04:33:53 PM 33.6500 -84.5000 90° East 149 171 2,100 -835 Descending Atlanta TRACON
Fri 04:34:47 PM 33.6500 -84.4500 90° East 159 183 1,300 -889 Descending Atlanta TRACON

Login

Don't have an account? Register now (free) for customized features, flight alerts, and more!